Time;durP1;ratioP1;P1;durP2;ratioP2;P2;SDS_P1;SDS_P2;PMS_P1;PMS_P2;Temp;Humidity;BMP_temperature;BMP_pressure;BME280_temperature;BME280_humidity;BME280_pressure;Samples;Min_cycle;Max_cycle;Signal;HPM_P1;HPM_P2
2022/06/20 00:01:16;;;;;;;20.58;6.60;;;;;;;22.98;78.10;98920.19;5094123;28;20491;-85
2022/06/20 00:03:47;;;;;;;17.73;7.20;;;;;;;22.95;78.28;98915.19;5075495;28;20024;-83
2022/06/20 00:06:15;;;;;;;14.57;6.45;;;;;;;22.88;78.78;98914.19;5094458;28;20110;-84
2022/06/20 00:08:41;;;;;;;14.48;6.38;;;;;;;22.69;79.00;98880.03;5094145;28;20040;-84
2022/06/20 00:11:12;;;;;;;15.82;6.93;;;;;;;22.78;79.51;98902.91;5090703;28;20127;-83
2022/06/20 00:13:42;;;;;;;11.82;6.47;;;;;;;22.75;79.61;98909.38;5074580;28;20044;-83
2022/06/20 00:16:12;;;;;;;11.48;6.10;;;;;;;22.66;80.11;98895.28;5074538;28;20043;-84
2022/06/20 00:18:38;;;;;;;10.57;6.68;;;;;;;22.56;80.37;98888.50;5074513;28;20036;-84
2022/06/20 00:21:03;;;;;;;13.68;6.30;;;;;;;22.46;80.51;98888.69;5091268;28;20052;-83
2022/06/20 00:23:28;;;;;;;14.27;7.20;;;;;;;22.56;80.88;98904.44;5091497;28;20055;-84
2022/06/20 00:25:55;;;;;;;14.10;6.55;;;;;;;22.54;81.34;98911.72;5074152;28;20127;-84
2022/06/20 00:28:20;;;;;;;14.48;7.28;;;;;;;22.48;81.85;98905.25;5091591;28;20039;-83
2022/06/20 00:30:47;;;;;;;13.55;6.78;;;;;;;22.40;82.10;98902.59;5091063;28;20089;-83
2022/06/20 00:33:13;;;;;;;13.65;6.38;;;;;;;22.42;82.52;98906.75;5091254;28;20036;-83
2022/06/20 00:35:39;;;;;;;12.63;6.03;;;;;;;22.34;83.55;98903.28;5091022;28;20070;-83
2022/06/20 00:38:06;;;;;;;12.60;6.47;;;;;;;22.27;83.70;98891.66;5090975;28;20032;-83
2022/06/20 00:40:35;;;;;;;12.85;6.47;;;;;;;22.30;84.27;98902.75;5074223;28;20123;-84
2022/06/20 00:43:01;;;;;;;13.05;7.43;;;;;;;22.13;84.87;98875.41;5074896;28;20048;-84
2022/06/20 00:45:31;;;;;;;16.00;6.57;;;;;;;22.20;85.34;98895.94;5075444;28;20080;-83
2022/06/20 00:48:09;;;;;;;14.40;7.55;;;;;;;22.11;86.34;98890.59;5075217;28;20051;-84
2022/06/20 00:50:34;;;;;;;12.90;7.07;;;;;;;22.07;86.78;98902.53;5075365;28;20379;-83
2022/06/20 00:53:09;;;;;;;15.75;7.50;;;;;;;21.88;87.12;98871.00;5093335;28;20028;-83
2022/06/20 00:55:46;;;;;;;11.98;6.22;;;;;;;21.91;87.63;98892.72;5093215;28;20066;-83
2022/06/20 00:58:33;;;;;;;16.08;7.57;;;;;;;21.95;88.25;98901.16;5075533;28;20032;-83
2022/06/20 01:01:00;;;;;;;13.88;6.82;;;;;;;21.70;89.34;98873.78;5093091;28;20349;-83
2022/06/20 01:03:33;;;;;;;11.35;6.30;;;;;;;21.70;89.80;98875.59;5093326;28;20099;-83
2022/06/20 01:06:10;;;;;;;16.98;7.93;;;;;;;21.74;90.34;98906.91;5092897;28;20348;-83
2022/06/20 01:08:43;;;;;;;13.95;7.47;;;;;;;21.65;91.58;98897.28;5074729;28;20036;-83
2022/06/20 01:11:18;;;;;;;16.10;7.53;;;;;;;21.64;93.37;98917.66;5074677;28;20478;-83
2022/06/20 01:13:44;;;;;;;13.30;6.63;;;;;;;21.44;93.97;98900.34;5074693;28;20032;-82
2022/06/20 01:16:13;;;;;;;14.15;7.55;;;;;;;21.52;95.08;98923.41;5093066;28;20020;-82
2022/06/20 01:18:41;;;;;;;17.20;7.85;;;;;;;21.36;95.87;98911.75;5093098;28;20395;-82
2022/06/20 01:21:13;;;;;;;15.20;6.60;;;;;;;21.43;96.53;98949.03;5092827;28;20042;-82
2022/06/20 01:24:05;;;;;;;13.80;7.22;;;;;;;21.44;97.20;98948.03;5092328;28;20035;-82
2022/06/20 01:26:37;;;;;;;16.38;7.65;;;;;;;21.18;98.60;98918.88;5092898;28;20059;-83
2022/06/20 01:29:06;;;;;;;15.18;7.60;;;;;;;21.09;100.00;98923.31;5092524;28;20081;-83
2022/06/20 01:31:39;;;;;;;11.85;6.72;;;;;;;21.08;100.00;98952.59;5093030;28;20027;-84
2022/06/20 01:34:06;;;;;;;18.05;8.27;;;;;;;20.94;100.00;98940.72;5074314;28;20127;-84
2022/06/20 01:39:21;;;;;;;18.63;10.57;;;;;;;20.88;100.00;98949.31;5092660;28;20131;-84
2022/06/20 01:44:37;;;;;;;16.52;10.68;;;;;;;20.71;100.00;98964.22;5092558;28;20047;-84
2022/06/20 01:47:03;;;;;;;15.80;9.70;;;;;;;20.72;100.00;98976.47;5092609;28;20122;-84
2022/06/20 01:49:32;;;;;;;16.23;8.93;;;;;;;20.68;100.00;98975.09;5074302;28;20522;-84
2022/06/20 01:52:12;;;;;;;21.52;10.88;;;;;;;20.66;100.00;98988.50;5012770;28;20041;-84
2022/06/20 01:54:43;;;;;;;15.73;10.02;;;;;;;20.48;100.00;98992.09;5013342;28;20052;-84
2022/06/20 01:57:11;;;;;;;16.15;9.43;;;;;;;20.44;100.00;99002.16;5029541;28;20039;-84
2022/06/20 01:59:45;;;;;;;17.83;10.82;;;;;;;20.45;100.00;99011.75;5029802;28;20029;-84
2022/06/20 02:02:11;;;;;;;20.55;11.15;;;;;;;20.28;100.00;98997.53;5029711;28;20037;-84
2022/06/20 02:04:38;;;;;;;21.58;10.98;;;;;;;20.29;100.00;99012.41;5013416;28;20052;-84
2022/06/20 02:07:08;;;;;;;17.73;10.30;;;;;;;20.22;100.00;99008.69;5012735;28;20033;-84
2022/06/20 02:09:34;;;;;;;16.52;10.35;;;;;;;20.08;100.00;99017.13;5013232;28;20065;-84
2022/06/20 02:12:02;;;;;;;20.23;11.30;;;;;;;20.03;100.00;99029.97;5029417;28;20041;-83
2022/06/20 02:14:41;;;;;;;16.25;9.93;;;;;;;19.85;100.00;99014.88;5012868;28;20583;-84
2022/06/20 02:17:12;;;;;;;17.17;10.90;;;;;;;19.95;100.00;99025.41;5012688;28;20038;-84
2022/06/20 02:19:43;;;;;;;21.27;11.95;;;;;;;19.83;100.00;99008.06;5029520;28;20033;-83
2022/06/20 02:22:10;;;;;;;17.40;10.45;;;;;;;19.79;100.00;99019.91;5036332;28;20040;-83
2022/06/20 02:24:39;;;;;;;18.30;11.68;;;;;;;19.80;100.00;99018.91;5070627;28;20032;-84
2022/06/20 02:27:11;;;;;;;23.83;12.88;;;;;;;19.79;100.00;99030.47;5071591;28;20108;-83
2022/06/20 02:29:36;;;;;;;16.77;11.68;;;;;;;19.71;100.00;99039.13;5071791;28;20028;-83
2022/06/20 02:32:42;;;;;;;21.55;11.98;;;;;;;19.68;100.00;99042.06;5071840;28;20031;-84
2022/06/20 02:35:12;;;;;;;17.23;11.25;;;;;;;19.62;100.00;99040.81;4975706;28;20129;-84
2022/06/20 02:37:38;;;;;;;20.55;11.35;;;;;;;19.42;100.00;99010.97;4993619;28;20038;-83
2022/06/20 02:40:08;;;;;;;18.77;11.40;;;;;;;19.42;100.00;99002.19;4993722;28;20043;-83
2022/06/20 02:42:38;;;;;;;17.23;11.05;;;;;;;19.48;100.00;99022.75;4993951;28;20081;-83
2022/06/20 02:45:10;;;;;;;23.00;12.45;;;;;;;19.51;100.00;99018.97;4993788;28;20555;-82
2022/06/20 02:47:40;;;;;;;24.92;11.55;;;;;;;19.37;100.00;99009.72;4993891;28;20034;-83
2022/06/20 02:50:07;;;;;;;17.70;12.05;;;;;;;19.46;100.00;99027.34;4993667;28;20041;-83
2022/06/20 02:52:40;;;;;;;19.75;11.73;;;;;;;19.35;100.00;99011.69;4993704;28;20129;-82
2022/06/20 02:55:07;;;;;;;20.33;12.52;;;;;;;19.49;100.00;99036.78;4977106;28;20474;-82
2022/06/20 02:57:42;;;;;;;19.00;13.20;;;;;;;19.48;100.00;99038.59;4977250;28;21118;-83
2022/06/20 03:00:15;;;;;;;21.50;12.85;;;;;;;19.18;100.00;98982.41;4977113;28;20100;-83
2022/06/20 03:02:45;;;;;;;17.85;11.90;;;;;;;19.43;100.00;99027.66;4977406;28;20038;-83
2022/06/20 03:05:12;;;;;;;21.83;12.07;;;;;;;19.27;100.00;98999.19;4976992;28;20437;-83
2022/06/20 03:07:41;;;;;;;19.75;12.98;;;;;;;19.29;100.00;99012.25;4993311;28;20514;-83
2022/06/20 03:10:23;;;;;;;24.92;12.98;;;;;;;19.32;100.00;99022.53;4993176;28;20181;-84
2022/06/20 03:12:48;;;;;;;19.30;11.95;;;;;;;19.19;100.00;99021.00;5075283;28;20697;-83
2022/06/20 03:15:16;;;;;;;21.42;13.18;;;;;;;19.13;100.00;99028.66;5073465;28;20032;-83
2022/06/20 03:17:45;;;;;;;19.75;12.90;;;;;;;19.01;100.00;99014.78;5074981;28;20426;-83
2022/06/20 03:20:13;;;;;;;23.05;13.50;;;;;;;19.06;100.00;99020.47;5073682;28;20031;-83
2022/06/20 03:23:02;;;;;;;24.60;13.88;;;;;;;19.03;100.00;98991.72;5073736;28;20067;-83
2022/06/20 03:25:29;;;;;;;26.85;14.98;;;;;;;19.04;100.00;98989.91;5074713;28;20072;-83
2022/06/20 03:27:54;;;;;;;29.02;14.73;;;;;;;19.06;100.00;99003.81;5073364;28;20090;-83
2022/06/20 03:30:31;;;;;;;26.58;14.75;;;;;;;19.04;100.00;98990.75;5074992;28;20029;-83
2022/06/20 03:32:58;;;;;;;26.85;15.82;;;;;;;19.03;100.00;98983.81;5073327;28;20028;-82
2022/06/20 03:35:26;;;;;;;24.65;14.43;;;;;;;19.03;100.00;98983.81;5073390;28;20048;-83
2022/06/20 03:37:52;;;;;;;24.23;12.85;;;;;;;19.06;100.00;98980.88;5074807;28;20032;-83
2022/06/20 03:40:18;;;;;;;25.52;14.85;;;;;;;19.01;100.00;98975.22;5074405;28;20539;-84
2022/06/20 03:42:44;;;;;;;20.30;14.82;;;;;;;18.90;100.00;98968.28;5074522;28;20484;-84
2022/06/20 03:45:11;;;;;;;21.95;12.93;;;;;;;18.80;100.00;98958.72;5072944;28;20032;-83
2022/06/20 03:47:41;;;;;;;28.02;15.10;;;;;;;18.93;100.00;98980.34;5072509;28;20051;-84
2022/06/20 03:50:18;;;;;;;23.15;15.10;;;;;;;18.92;100.00;98968.16;5074412;28;20025;-83
2022/06/20 03:52:49;;;;;;;24.65;14.23;;;;;;;18.97;100.00;98973.81;5073048;28;20119;-83
2022/06/20 03:55:52;;;;;;;21.75;13.15;;;;;;;19.04;100.00;98963.53;5072653;28;20579;-83
2022/06/20 03:58:21;;;;;;;25.33;13.93;;;;;;;19.12;100.00;98964.47;4992469;28;20042;-83
2022/06/20 04:00:56;;;;;;;24.98;13.73;;;;;;;19.22;100.00;98966.28;4992630;28;20081;-83
2022/06/20 04:03:47;;;;;;;19.33;13.32;;;;;;;19.37;100.00;98972.75;4976237;28;20522;-83
2022/06/20 04:06:44;;;;;;;20.40;12.30;;;;;;;19.52;100.00;98978.41;4953355;29;20515;-83
2022/06/20 04:12:15;;;;;;;18.13;12.63;;;;;;;19.56;100.00;98959.47;4915351;29;20128;-83
2022/06/20 04:15:01;;;;;;;15.63;11.55;;;;;;;19.74;100.00;98979.88;4915360;29;20044;-83
2022/06/20 04:20:47;;;;;;;11.60;10.45;;;;;;;19.78;100.00;98962.75;4915614;29;20100;-84
2022/06/20 04:23:22;;;;;;;14.05;9.98;;;;;;;19.76;100.00;98946.19;4915503;29;20082;-84
2022/06/20 04:25:56;;;;;;;13.95;9.57;;;;;;;19.79;100.00;98959.13;4915122;29;20172;-83
2022/06/20 04:28:25;;;;;;;12.50;8.38;;;;;;;19.80;100.00;98971.34;4915022;29;20119;-83
2022/06/20 04:30:59;;;;;;;10.57;8.25;;;;;;;19.87;100.00;98970.63;4914975;29;20592;-83
2022/06/20 04:33:33;;;;;;;11.23;9.10;;;;;;;19.98;100.00;98958.22;4915137;29;20043;-83
2022/06/20 04:36:11;;;;;;;14.15;8.70;;;;;;;20.15;100.00;98958.22;4968262;28;20401;-84
2022/06/20 04:38:44;;;;;;;11.27;8.55;;;;;;;20.35;100.00;98966.00;5014691;28;20025;-84
2022/06/20 04:41:17;;;;;;;10.00;8.10;;;;;;;20.46;100.00;98979.00;5014531;28;20473;-83
2022/06/20 04:44:25;;;;;;;9.95;7.80;;;;;;;20.58;100.00;98990.25;5031252;28;20056;-83
2022/06/20 04:47:17;;;;;;;9.68;8.07;;;;;;;20.63;100.00;98986.16;5007584;28;20141;-83
2022/06/20 04:49:42;;;;;;;9.45;7.45;;;;;;;20.77;100.00;98984.78;5010865;28;20436;-84
2022/06/20 04:52:14;;;;;;;11.77;7.30;;;;;;;20.95;100.00;99019.19;5010987;28;20116;-83
2022/06/20 04:54:40;;;;;;;9.55;8.13;;;;;;;20.88;100.00;99018.13;5011046;28;20116;-82
2022/06/20 04:57:08;;;;;;;10.35;8.63;;;;;;;20.89;100.00;99011.84;5010585;28;20056;-83
2022/06/20 04:59:34;;;;;;;11.35;8.73;;;;;;;20.80;100.00;98988.94;5010955;28;20042;-83
2022/06/20 05:02:04;;;;;;;11.52;8.55;;;;;;;20.78;100.00;98970.59;5010917;28;20041;-83
2022/06/20 05:04:37;;;;;;;11.25;7.95;;;;;;;21.32;100.00;98984.56;4994481;28;20038;-82
2022/06/20 05:07:07;;;;;;;11.45;7.55;;;;;;;22.15;100.00;98960.91;5010380;28;20029;-82
2022/06/20 05:09:47;;;;;;;11.60;8.85;;;;;;;22.61;99.29;98968.44;5010947;28;20682;-82
2022/06/20 05:12:18;;;;;;;13.60;9.05;;;;;;;22.53;99.04;98969.28;5010627;28;20481;-82
2022/06/20 05:14:56;;;;;;;9.80;7.82;;;;;;;22.64;97.82;98970.78;4994456;28;20029;-82
2022/06/20 05:17:27;;;;;;;10.18;7.25;;;;;;;23.05;97.26;98968.97;5010782;28;20124;-82
2022/06/20 05:19:59;;;;;;;14.57;8.40;;;;;;;23.84;92.79;98977.09;5010679;28;20025;-82
2022/06/20 05:22:34;;;;;;;12.05;8.15;;;;;;;24.57;87.98;98959.91;5010480;28;20033;-82
2022/06/20 05:25:05;;;;;;;11.73;9.40;;;;;;;25.29;84.08;98986.94;5051714;28;20040;-81
2022/06/20 05:27:42;;;;;;;11.60;7.60;;;;;;;25.01;84.80;98983.19;5052522;28;20132;-82
2022/06/20 05:30:16;;;;;;;15.65;10.60;;;;;;;24.02;87.77;98985.66;5052443;28;20078;-82
2022/06/20 05:32:50;;;;;;;12.50;9.30;;;;;;;23.67;89.77;98962.22;5052727;28;20029;-83
2022/06/20 05:35:24;;;;;;;17.88;10.35;;;;;;;23.67;91.12;98975.50;5052125;28;20411;-83
2022/06/20 05:38:04;;;;;;;13.00;10.18;;;;;;;24.00;90.13;98970.88;5052632;28;20032;-83
2022/06/20 05:40:39;;;;;;;13.80;9.73;;;;;;;24.44;88.96;98959.66;5051175;28;20044;-82
2022/06/20 05:43:15;;;;;;;12.55;9.90;;;;;;;24.87;86.44;98959.00;5050789;28;20484;-83
2022/06/20 05:45:40;;;;;;;15.63;11.50;;;;;;;25.62;82.86;98944.75;5051556;28;20388;-83
2022/06/20 05:48:11;;;;;;;12.80;10.10;;;;;;;25.93;81.47;98948.25;5050891;28;20037;-83
2022/06/20 05:50:44;;;;;;;16.85;10.23;;;;;;;26.13;79.91;98957.31;5052158;28;20413;-82
2022/06/20 05:53:24;;;;;;;19.48;12.23;;;;;;;25.69;80.05;98965.34;5050964;28;20480;-82
2022/06/20 05:55:50;;;;;;;17.10;10.57;;;;;;;25.84;80.84;98958.19;5052164;28;20384;-82
2022/06/20 05:58:26;;;;;;;14.60;10.48;;;;;;;25.88;80.05;98970.97;5052074;28;20067;-83
2022/06/20 06:00:53;;;;;;;18.05;12.45;;;;;;;25.74;80.56;98965.59;5052238;28;20032;-83
2022/06/20 06:03:29;;;;;;;16.23;11.45;;;;;;;25.76;80.50;98956.41;5066739;28;20032;-83
2022/06/20 06:06:07;;;;;;;17.35;12.18;;;;;;;25.65;80.34;98948.88;5052271;28;20032;-83
2022/06/20 06:08:44;;;;;;;14.68;11.18;;;;;;;25.45;81.30;98953.97;5081412;28;20071;-83
2022/06/20 06:11:16;;;;;;;14.93;11.15;;;;;;;25.61;82.00;98942.25;5091705;28;20032;-83
2022/06/20 06:13:52;;;;;;;11.77;9.18;;;;;;;26.41;79.14;98900.47;5073853;28;20102;-82
2022/06/20 06:19:43;;;;;;;15.15;11.10;;;;;;;28.18;71.87;98911.66;5091575;28;20078;-82
2022/06/20 06:22:19;;;;;;;18.60;10.20;;;;;;;28.41;70.68;98896.06;5091608;28;20023;-83
2022/06/20 06:24:46;;;;;;;14.32;10.13;;;;;;;28.21;70.23;98892.50;5091981;28;20115;-84
2022/06/20 06:27:23;;;;;;;11.43;9.20;;;;;;;28.51;70.19;98877.72;5091541;28;20421;-83
2022/06/20 06:29:56;;;;;;;13.43;10.20;;;;;;;29.30;67.04;98876.00;5048924;28;20519;-84
2022/06/20 06:32:33;;;;;;;16.85;10.20;;;;;;;31.24;61.35;98877.19;5032223;28;20037;-85
2022/06/20 06:35:11;;;;;;;11.98;7.90;;;;;;;33.34;56.26;98881.56;5049040;28;20083;-85
2022/06/20 06:37:57;;;;;;;11.15;8.10;;;;;;;36.21;44.57;98866.78;5049163;28;20056;-85
2022/06/20 06:40:49;;;;;;;13.63;7.97;;;;;;;37.75;38.65;98868.53;5048934;28;20480;-85
2022/06/20 06:43:23;;;;;;;9.77;6.80;;;;;;;38.95;36.60;98852.88;5048937;28;20057;-85
2022/06/20 06:45:52;;;;;;;11.13;7.15;;;;;;;40.29;32.53;98846.47;5049277;28;20127;-85
2022/06/20 06:48:35;;;;;;;10.90;7.35;;;;;;;40.85;31.16;98840.50;5048946;28;20059;-85
2022/06/20 06:51:08;;;;;;;10.15;7.70;;;;;;;40.52;30.03;98815.69;5032210;28;20431;-84
2022/06/20 06:53:54;;;;;;;10.48;7.25;;;;;;;41.76;28.85;98818.59;5049065;28;20021;-84
2022/06/20 06:56:27;;;;;;;11.63;7.07;;;;;;;41.72;28.04;98812.91;5048347;28;20179;-84
2022/06/20 06:59:05;;;;;;;14.00;7.30;;;;;;;42.32;27.16;98809.53;5048697;28;20037;-84
2022/06/20 07:01:37;;;;;;;7.68;5.80;;;;;;;43.33;25.24;98811.44;5082684;28;20051;-83
2022/06/20 07:04:39;;;;;;;8.95;6.90;;;;;;;43.30;24.82;98810.09;5091550;28;20032;-84
2022/06/20 07:07:16;;;;;;;9.00;5.65;;;;;;;43.97;24.72;98800.41;4989475;28;20741;-83
2022/06/20 07:09:50;;;;;;;10.45;6.55;;;;;;;44.91;23.13;98787.50;4989750;28;20103;-83
2022/06/20 07:12:34;;;;;;;14.23;7.68;;;;;;;44.28;22.97;98793.03;4973143;28;20092;-83
2022/06/20 07:15:06;;;;;;;10.90;5.90;;;;;;;44.16;23.08;98780.97;4973357;28;20151;-83
2022/06/20 07:17:45;;;;;;;10.55;5.50;;;;;;;44.65;22.60;98770.94;4989353;28;20046;-83
2022/06/20 07:20:12;;;;;;;10.82;5.75;;;;;;;44.49;23.37;98760.34;4990055;28;20129;-83
2022/06/20 07:22:40;;;;;;;9.75;5.10;;;;;;;45.22;22.72;98752.53;4993301;28;20030;-83
2022/06/20 07:25:07;;;;;;;12.00;7.55;;;;;;;44.93;21.49;98755.03;4993017;28;20104;-84
2022/06/20 07:27:49;;;;;;;11.77;7.10;;;;;;;42.73;24.30;98760.34;4976682;28;20062;-84
2022/06/20 07:30:26;;;;;;;12.55;6.57;;;;;;;42.70;24.57;98758.19;4992861;28;20777;-85
2022/06/20 07:33:06;;;;;;;9.50;5.38;;;;;;;44.66;22.83;98756.06;4993089;28;20153;-85
2022/06/20 07:35:37;;;;;;;11.13;5.53;;;;;;;45.69;21.49;98768.41;4992774;28;20034;-85
2022/06/20 07:38:33;;;;;;;9.32;5.80;;;;;;;47.16;19.21;98773.44;4992866;28;20053;-84
2022/06/20 07:41:04;;;;;;;11.93;5.95;;;;;;;44.64;21.14;98761.09;4935060;29;20048;-84
2022/06/20 07:43:36;;;;;;;10.43;5.70;;;;;;;45.53;21.47;98771.63;4967428;28;20044;-83
2022/06/20 07:46:17;;;;;;;10.07;5.43;;;;;;;47.05;19.97;98774.16;5032124;28;20493;-84
2022/06/20 07:48:46;;;;;;;8.82;5.35;;;;;;;48.58;18.53;98782.53;5015351;28;20112;-84
2022/06/20 07:51:23;;;;;;;11.27;5.55;;;;;;;48.85;17.56;98770.00;5031896;28;20116;-84
2022/06/20 07:53:57;;;;;;;9.60;5.68;;;;;;;47.64;18.64;98772.09;5015445;28;20029;-84
2022/06/20 07:56:37;;;;;;;7.93;5.13;;;;;;;47.50;18.70;98764.13;5031721;28;20232;-84
2022/06/20 07:59:12;;;;;;;7.10;4.95;;;;;;;47.91;18.42;98745.06;5031722;28;20048;-84
2022/06/20 08:01:57;;;;;;;10.60;5.32;;;;;;;46.39;19.71;98733.28;5015400;28;20029;-84
2022/06/20 08:04:30;;;;;;;9.15;5.43;;;;;;;42.32;23.63;98713.75;5031609;28;20069;-84
2022/06/20 08:07:20;;;;;;;8.20;5.88;;;;;;;39.51;27.49;98709.06;5031437;28;20033;-84
2022/06/20 08:10:12;;;;;;;10.23;5.90;;;;;;;36.96;31.76;98710.25;5031662;28;20149;-84
2022/06/20 08:12:47;;;;;;;10.07;5.57;;;;;;;35.13;35.42;98706.91;5031701;28;20497;-84
2022/06/20 08:15:26;;;;;;;9.10;6.57;;;;;;;33.41;39.45;98697.84;5031267;28;20551;-84
2022/06/20 08:17:53;;;;;;;11.25;6.18;;;;;;;32.13;43.05;98727.53;5059817;28;20064;-84
2022/06/20 08:20:19;;;;;;;12.93;7.82;;;;;;;31.32;45.58;98737.03;5093566;28;20039;-83
2022/06/20 08:23:00;;;;;;;13.02;7.10;;;;;;;30.59;47.61;98748.56;5093152;28;20016;-84
2022/06/20 08:25:36;;;;;;;14.20;7.28;;;;;;;29.96;50.25;98760.31;5091610;28;20043;-84
2022/06/20 08:28:12;;;;;;;12.07;6.63;;;;;;;29.34;52.47;98751.97;5091476;28;20052;-84
2022/06/20 08:30:52;;;;;;;13.80;7.22;;;;;;;28.97;54.66;98761.63;5093856;28;20441;-84
2022/06/20 08:33:23;;;;;;;10.77;7.50;;;;;;;28.40;57.00;98735.56;5074978;28;20032;-84
2022/06/20 08:36:01;;;;;;;12.23;7.45;;;;;;;27.98;59.31;98748.31;5075233;28;20055;-84
2022/06/20 08:38:40;;;;;;;11.77;7.15;;;;;;;27.65;61.52;98816.00;5089159;28;20054;-84
2022/06/20 08:41:17;;;;;;;12.52;8.45;;;;;;;27.48;63.57;98860.16;5075624;28;20039;-84
2022/06/20 08:44:12;;;;;;;13.75;7.57;;;;;;;27.15;64.97;98874.19;5075378;28;20028;-84
2022/06/20 08:46:56;;;;;;;9.63;7.78;;;;;;;26.93;65.73;98888.63;4991152;28;20034;-84
2022/06/20 08:50:12;;;;;;;13.57;7.10;;;;;;;26.73;66.82;98848.41;4975007;28;20025;-84
2022/06/20 08:53:11;;;;;;;10.98;7.43;;;;;;;26.66;67.64;98815.47;4933480;29;20085;-84
2022/06/20 08:55:51;;;;;;;11.00;7.60;;;;;;;26.53;68.53;98814.34;4917283;29;20027;-84
2022/06/20 08:58:25;;;;;;;;;;;;;;;26.28;70.06;98837.13;4933609;29;20047;-83
2022/06/20 09:01:15;;;;;;;13.98;8.25;;;;;;;26.11;71.73;98831.22;4917442;29;19918;-83
2022/06/20 09:04:07;;;;;;;15.00;9.20;;;;;;;25.80;73.66;98821.69;4917437;29;20127;-84
2022/06/20 09:06:54;;;;;;;18.83;9.93;;;;;;;25.49;76.99;98819.25;4932974;29;20079;-83
2022/06/20 09:09:37;;;;;;;16.77;11.05;;;;;;;25.07;80.52;98807.44;4932884;29;20051;-82
2022/06/20 09:12:18;;;;;;;19.15;11.45;;;;;;;24.84;82.12;98783.56;4917085;29;20146;-83
2022/06/20 09:14:46;;;;;;;19.77;12.73;;;;;;;24.82;82.98;98744.81;4933216;29;20100;-83
2022/06/20 09:17:20;;;;;;;18.70;13.73;;;;;;;24.54;83.22;98732.16;4917062;29;20087;-83
2022/06/20 09:20:23;;;;;;;22.08;13.07;;;;;;;24.49;83.59;98733.72;4917144;29;20510;-82
2022/06/20 09:23:03;;;;;;;18.58;12.27;;;;;;;24.50;83.35;98695.44;4872621;28;20039;-83
2022/06/20 09:25:50;;;;;;;20.63;13.38;;;;;;;24.72;81.47;98691.81;4971259;28;20479;-82
2022/06/20 09:29:00;;;;;;;19.08;13.20;;;;;;;24.62;82.76;98691.28;4971136;28;20061;-83
2022/06/20 09:31:46;;;;;;;19.75;13.27;;;;;;;24.62;83.40;98689.47;4913601;29;20531;-82
2022/06/20 09:34:21;;;;;;;29.58;15.05;;;;;;;24.76;82.62;98703.75;4914025;29;20056;-83
2022/06/20 09:37:15;;;;;;;26.30;15.00;;;;;;;24.57;83.08;98696.34;4897875;29;20094;-83
2022/06/20 09:40:03;;;;;;;20.65;14.27;;;;;;;24.33;84.87;98769.25;4913409;29;20032;-84
2022/06/20 09:42:38;;;;;;;28.50;17.73;;;;;;;23.83;84.92;98806.06;4913391;29;20052;-83
2022/06/20 09:45:20;;;;;;;20.63;15.85;;;;;;;23.18;87.54;98826.84;4912779;29;20050;-83
2022/06/20 09:47:59;;;;;;;28.13;16.92;;;;;;;22.87;89.68;98870.88;4913684;29;20044;-82
2022/06/20 09:50:59;;;;;;;20.90;14.85;;;;;;;22.77;90.91;98910.06;4913453;29;20040;-83
2022/06/20 09:53:27;;;;;;;24.75;15.68;;;;;;;22.76;90.65;98911.06;4913209;29;20123;-83
2022/06/20 09:56:03;;;;;;;20.02;14.57;;;;;;;22.59;90.45;98909.41;4913321;29;20036;-83
2022/06/20 09:58:46;;;;;;;24.25;15.88;;;;;;;22.49;90.38;98896.28;4913191;29;20432;-83
2022/06/20 10:01:34;;;;;;;18.50;15.88;;;;;;;22.54;90.08;98890.47;4897559;29;20047;-83
2022/06/20 10:04:25;;;;;;;29.05;17.55;;;;;;;22.44;90.19;98871.25;4912699;29;20209;-82
2022/06/20 10:07:11;;;;;;;27.75;18.63;;;;;;;22.22;91.24;98862.97;4933005;28;20039;-83
2022/06/20 10:09:50;;;;;;;30.75;19.65;;;;;;;21.92;92.43;98820.16;4953505;28;20047;-84
2022/06/20 10:12:15;;;;;;;26.83;18.55;;;;;;;22.05;92.31;98845.34;4953606;28;20561;-82
2022/06/20 10:15:17;;;;;;;30.40;17.73;;;;;;;22.18;91.79;98856.34;4953382;28;20042;-88
2022/06/20 10:18:12;;;;;;;24.60;17.98;;;;;;;22.17;91.79;98865.28;4969023;28;20042;-82
2022/06/20 10:20:50;;;;;;;25.55;17.13;;;;;;;21.99;92.05;98860.06;4952040;28;20039;-84
2022/06/20 10:23:45;;;;;;;29.48;17.60;;;;;;;21.85;92.43;98837.69;4985040;28;20053;-84
2022/06/20 10:26:22;;;;;;;29.88;19.80;;;;;;;21.72;92.56;98831.22;4989343;28;20038;-84
2022/06/20 10:28:54;;;;;;;27.80;20.20;;;;;;;21.28;94.29;98812.81;4988636;28;20023;-84
2022/06/20 10:31:35;;;;;;;26.73;20.70;;;;;;;21.09;96.11;98803.34;5025444;28;20565;-85
2022/06/20 10:34:10;;;;;;;31.08;21.60;;;;;;;20.83;97.90;98813.97;5028233;28;20025;-84
2022/06/20 10:36:47;;;;;;;35.65;20.13;;;;;;;20.76;99.80;98826.97;5011111;28;20045;-84
2022/06/20 10:39:22;;;;;;;30.30;21.77;;;;;;;20.65;100.00;98848.44;5011531;28;20107;-84
2022/06/20 10:42:08;;;;;;;33.03;23.23;;;;;;;20.36;100.00;98852.16;5011648;28;20382;-85
2022/06/20 10:44:44;;;;;;;26.15;18.92;;;;;;;20.07;100.00;98835.72;5058922;28;20459;-84
2022/06/20 10:47:20;;;;;;;23.17;19.15;;;;;;;20.03;100.00;98829.06;5090746;28;20034;-84
2022/06/20 10:50:02;;;;;;;24.92;19.38;;;;;;;20.21;100.00;98844.91;5072413;28;20020;-83
2022/06/20 10:52:54;;;;;;;24.23;17.77;;;;;;;20.32;100.00;98852.63;5071769;28;20033;-83
2022/06/20 10:55:35;;;;;;;25.88;19.73;;;;;;;20.33;100.00;98854.25;4990613;28;20398;-83
2022/06/20 10:58:37;;;;;;;29.30;21.58;;;;;;;20.21;100.00;98850.19;4993844;28;20042;-84
2022/06/20 11:01:20;;;;;;;24.58;20.27;;;;;;;20.07;100.00;98847.09;4977136;28;20502;-84
2022/06/20 11:04:01;;;;;;;26.58;19.58;;;;;;;20.10;100.00;98852.09;4993762;28;20086;-83
2022/06/20 11:06:26;;;;;;;25.92;20.27;;;;;;;20.19;100.00;98859.13;4993371;28;20071;-84
2022/06/20 11:09:02;;;;;;;26.90;20.38;;;;;;;20.23;100.00;98866.75;4992792;28;20058;-85
2022/06/20 11:11:48;;;;;;;27.58;20.88;;;;;;;20.12;100.00;98865.16;4976608;28;20042;-86
2022/06/20 11:14:34;;;;;;;22.20;18.85;;;;;;;20.11;100.00;98858.22;4976822;28;20117;-85
2022/06/20 11:17:11;;;;;;;24.67;19.00;;;;;;;20.27;100.00;98863.66;4993157;28;20040;-87
2022/06/20 11:20:16;;;;;;;22.10;17.33;;;;;;;20.40;100.00;98873.84;4992873;28;20070;-88
2022/06/20 11:22:45;;;;;;;22.75;17.98;;;;;;;20.53;100.00;98865.53;4934687;29;20484;-83
2022/06/20 11:25:36;;;;;;;23.77;17.63;;;;;;;20.61;100.00;98860.31;4935121;29;20634;-84
2022/06/20 11:28:22;;;;;;;21.75;17.35;;;;;;;20.52;100.00;98840.03;4935398;29;20075;-85
2022/06/20 11:31:15;;;;;;;25.55;18.13;;;;;;;20.63;100.00;98861.78;4934871;29;20024;-85
2022/06/20 11:34:09;;;;;;;22.80;18.08;;;;;;;20.51;100.00;98870.97;4992546;28;20038;-84
2022/06/20 11:37:11;;;;;;;26.95;18.65;;;;;;;20.47;100.00;98876.69;4975981;28;20126;-85
2022/06/20 11:39:45;;;;;;;18.40;16.35;;;;;;;20.34;100.00;98883.19;4992394;28;20042;-83
2022/06/20 11:42:35;;;;;;;18.30;15.05;;;;;;;20.21;100.00;98885.41;4992619;28;20038;-83
2022/06/20 11:45:15;;;;;;;24.02;18.33;;;;;;;20.23;100.00;98888.72;4992947;28;20038;-82
2022/06/20 11:47:55;;;;;;;20.00;17.52;;;;;;;20.19;100.00;98900.59;4976064;28;20082;-82
2022/06/20 11:50:34;;;;;;;22.95;17.55;;;;;;;20.21;100.00;98889.84;4992764;28;20030;-82
2022/06/20 11:53:08;;;;;;;20.95;17.27;;;;;;;20.25;100.00;98878.81;4992570;28;20121;-82
2022/06/20 11:55:49;;;;;;;22.73;18.67;;;;;;;20.37;100.00;98874.97;4992291;28;20538;-82
2022/06/20 11:58:17;;;;;;;21.55;17.40;;;;;;;20.52;100.00;98861.22;4992417;28;20528;-82
2022/06/20 12:00:49;;;;;;;25.08;19.20;;;;;;;20.55;100.00;98845.03;5045888;28;20450;-83
2022/06/20 12:03:43;;;;;;;19.65;17.40;;;;;;;20.64;100.00;98828.22;5089842;28;20054;-82
2022/06/20 12:06:42;;;;;;;20.23;16.13;;;;;;;20.77;100.00;98819.88;5055945;28;20074;-83
2022/06/20 12:09:21;;;;;;;20.80;16.73;;;;;;;20.80;100.00;98856.63;4992019;28;20105;-82
2022/06/20 12:12:05;;;;;;;22.25;16.33;;;;;;;20.78;100.00;98864.72;4992049;28;20042;-82
2022/06/20 12:14:52;;;;;;;15.73;13.68;;;;;;;21.05;100.00;98860.22;4991877;28;20045;-82
2022/06/20 12:17:46;;;;;;;17.88;14.50;;;;;;;21.34;98.95;98863.38;4992220;28;20090;-82